Cresco, PA (18326)

5:54 AM EDT on May 03, 2015 (GMT -0400)
Dogwood Ln | | Change Station
CLOSE
Current Station
Personal Weather Station
Location: Canadensis, PA
Elevation: 1300 ft
Nearby Weather Stations

Elev 1300 ft 41.17 °N, 75.19 °W | Updated 8 seconds ago

Clear
Clear
43.0 °F
Feels Like 43 °F
N
0.0
Wind Variable Wind from ENE
Gusts 0.0 mph

Today
High -- | Low -- °F
--% Chance of Precip.
Yesterday
High -- | Low -- °F
Precip. -- in
5:56 AM 7:59 PM
Waxing Gibbous, 99% visible
Pressure 30.06 in
Visibility 10.0 miles
Clouds Clear
Windchill 43 °F
Dew Point 26 °F
Humidity 51%
Rainfall 0.00 in
Snow Depth Not available.
UV 0 out of 12
Pollen 9.50 out of 12
Air Quality Not available.
Flu Activity Sporadic
METAR KMPO 030853Z AUTO 34003KT 10SM CLR 03/M01 A3005 RMK AO2 SLP178 T00281011 53006

More Conditions Fewer Conditions

Pressure 30.06 in
Visibility 10.0 miles
Clouds Clear
Windchill 43 °F
Dew Point 26 °F
Humidity 51%
Rainfall 0.00 in
Snow Depth Not available.
UV 0 out of 12
Pollen 9.50 out of 12
Air Quality Not available.
Flu Activity Sporadic
METAR KMPO 030853Z AUTO 34003KT 10SM CLR 03/M01 A3005 RMK AO2 SLP178 T00281011 53006

More Conditions Fewer Conditions

Nepal has a long way to go to dig out and rebuild from a devastating earthquake. We have teamed up with several charities and organizations to make contributing to the relief effort as easy as possible.
How you can help: Portlight Strategies | Red Cross

10-Day Weather Forecast

Almanac

Astronomy

May. 03, 2015 Rise Set
Actual Time
Civil Twilight
Nautical Twilight
Astronomical Twilight
Moon
Length of Visible Light
Length of Day
Tomorrow will be .
, % of the Moon is Illuminated

Today's Extremes

State Highs State Lows

Community

WunderPhotos

Upload Photos

1,818,185 photos uploaded!

WunderBlogs® & News

Nearby

Air Quality

  Air Quality AQ Index Pollutant
Not available.

Snow Depth

Station Depth Elevation

Earthquake Activity

City Distance Mag. Time & Date
Minimum magnitude displayed is 2.5.

Coastal Water Temperatures

Place Temperature

Stations

Nearby Weather Stations

Station Location Temp. Windchill Dew Point Humidity Wind Precip. Elev Updated Type